createdAt,value
2018-10-03T01:05:50.365Z,19.3
2018-10-03T01:06:01.189Z,19.3
2018-10-03T01:06:51.266Z,19.3
2018-10-03T01:07:41.152Z,19.3
2018-10-03T01:08:30.891Z,19.3
2018-10-03T01:09:19.859Z,19.3
2018-10-03T01:10:11.268Z,19.3
2018-10-03T01:11:01.554Z,19.3
2018-10-03T01:11:51.091Z,19.3
2018-10-03T01:12:41.424Z,19.3
2018-10-03T01:13:30.687Z,19.3
2018-10-03T01:14:21.304Z,19.3
2018-10-03T01:15:11.646Z,19.3
2018-10-03T01:16:01.113Z,19.3
2018-10-03T01:16:52.088Z,19.2
2018-10-03T01:17:41.600Z,19.2
2018-10-03T01:18:31.583Z,19.3
2018-10-03T01:19:20.560Z,19.2
2018-10-03T01:20:10.870Z,19.3
2018-10-03T01:21:01.963Z,19.2
2018-10-03T01:21:52.062Z,19.2
2018-10-03T01:22:42.243Z,19.3
2018-10-03T01:23:30.765Z,19.2
2018-10-03T01:24:21.860Z,19.2
2018-10-03T01:25:11.883Z,19.2
2018-10-03T01:26:01.951Z,19.2
2018-10-03T01:26:52.000Z,19.2
2018-10-03T01:27:41.790Z,19.2
2018-10-03T01:28:32.224Z,19.2
2018-10-03T01:29:21.643Z,19.2
2018-10-03T01:30:12.510Z,19.2
2018-10-03T01:31:02.873Z,19.2
2018-10-03T01:31:52.904Z,19.2
2018-10-03T01:32:42.668Z,19.2
2018-10-03T01:33:31.851Z,19.2
2018-10-03T01:34:22.200Z,19.2
2018-10-03T01:35:12.877Z,19.2
2018-10-03T01:36:02.902Z,19.1
2018-10-03T01:36:52.978Z,19.2
2018-10-03T01:37:43.016Z,19.2
2018-10-03T01:38:34.400Z,19.2
2018-10-03T01:39:23.449Z,19.1
2018-10-03T01:40:12.361Z,19.2
2018-10-03T01:41:04.069Z,19.1
2018-10-03T01:41:53.324Z,19.1
2018-10-03T01:42:43.086Z,19.2
2018-10-03T01:43:33.533Z,19.1
2018-10-03T01:44:24.063Z,19.2
2018-10-03T01:45:14.164Z,19.2
2018-10-03T01:46:03.363Z,19.1
2018-10-03T01:46:54.005Z,19.2
2018-10-03T01:47:43.784Z,19.2
2018-10-03T01:48:34.649Z,19.1
2018-10-03T01:49:23.878Z,19.1
2018-10-03T01:50:14.790Z,19.1
2018-10-03T01:51:05.139Z,19.1
2018-10-03T01:51:54.340Z,19.1
2018-10-03T01:52:44.428Z,19.1
2018-10-03T01:53:34.495Z,19.1
2018-10-03T01:54:24.541Z,19.1
2018-10-03T01:55:14.081Z,19.1
2018-10-03T01:56:04.695Z,19.1
2018-10-03T01:56:54.302Z,19.1
2018-10-03T01:57:45.350Z,19.1
2018-10-03T01:58:34.797Z,19.1
2018-10-03T01:59:24.925Z,19.1
2018-10-03T02:00:15.038Z,19.1
2018-10-03T02:01:05.607Z,19.1
2018-10-03T02:01:55.108Z,19.1
2018-10-03T02:02:44.402Z,19.1
2018-10-03T02:03:34.140Z,19.1
2018-10-03T02:04:25.612Z,19.1
2018-10-03T02:05:14.557Z,19.1
2018-10-03T02:06:05.747Z,19.1
2018-10-03T02:06:55.447Z,19.1
2018-10-03T02:07:44.757Z,19.1
2018-10-03T02:08:35.214Z,19.1
2018-10-03T02:09:25.063Z,19.1
2018-10-03T02:10:15.785Z,19.1
2018-10-03T02:11:05.838Z,19.1
2018-10-03T02:11:55.877Z,19.1
2018-10-03T02:12:45.129Z,19.1
2018-10-03T02:13:35.517Z,19.1
2018-10-03T02:14:25.538Z,19.1
2018-10-03T02:15:15.317Z,19.1
2018-10-03T02:16:05.100Z,19.1
2018-10-03T02:16:55.498Z,19.1
2018-10-03T02:17:46.099Z,19.1
2018-10-03T02:18:35.704Z,19.1
2018-10-03T02:19:25.133Z,19.1
2018-10-03T02:20:15.139Z,19.1
2018-10-03T02:21:06.337Z,19.1
2018-10-03T02:21:55.799Z,19.1
2018-10-03T02:22:46.399Z,19.1
2018-10-03T02:23:37.079Z,19.1
2018-10-03T02:24:24.544Z,19.1
2018-10-03T02:25:16.597Z,19.1
2018-10-03T02:26:06.684Z,19.1
2018-10-03T02:26:55.347Z,19.1
2018-10-03T02:27:45.931Z,19.1
2018-10-03T02:28:36.022Z,19.1
2018-10-03T02:29:26.111Z,19.1
2018-10-03T02:30:15.604Z,19.1
2018-10-03T02:31:06.888Z,19.1
2018-10-03T02:31:56.945Z,19.1
2018-10-03T02:32:46.354Z,19.1
2018-10-03T02:33:36.511Z,19.1
2018-10-03T02:34:26.496Z,19.1
2018-10-03T02:35:16.827Z,19.1
2018-10-03T02:36:06.618Z,19.1
2018-10-03T02:36:57.590Z,19.1
2018-10-03T02:37:46.471Z,19.1
2018-10-03T02:38:37.658Z,19
2018-10-03T02:39:27.121Z,19
2018-10-03T02:40:17.550Z,19
2018-10-03T02:41:06.608Z,19.1
2018-10-03T02:41:57.305Z,19
2018-10-03T02:42:47.802Z,19
2018-10-03T02:43:37.415Z,19
2018-10-03T02:44:27.487Z,19
2018-10-03T02:45:17.611Z,19
2018-10-03T02:46:08.055Z,19
2018-10-03T02:46:58.282Z,19
2018-10-03T02:47:48.308Z,19
2018-10-03T02:48:38.138Z,19
2018-10-03T02:49:27.566Z,19
2018-10-03T02:50:17.993Z,19
2018-10-03T02:51:08.565Z,19
2018-10-03T02:51:58.551Z,19
2018-10-03T02:52:48.085Z,19
2018-10-03T02:53:38.980Z,19
2018-10-03T02:54:28.080Z,19
2018-10-03T02:55:18.590Z,19
2018-10-03T02:56:08.925Z,19
2018-10-03T02:56:58.675Z,19
2018-10-03T02:57:48.461Z,19
2018-10-03T02:58:38.964Z,19
2018-10-03T02:59:29.149Z,19
2018-10-03T03:00:19.579Z,19
2018-10-03T03:01:09.298Z,19
2018-10-03T03:02:00.527Z,19
2018-10-03T03:02:49.064Z,19
2018-10-03T03:03:40.190Z,19
2018-10-03T03:04:29.221Z,19
2018-10-03T03:05:20.440Z,19
2018-10-03T03:06:09.375Z,19
2018-10-03T03:06:59.903Z,18.9
2018-10-03T03:07:49.752Z,19
2018-10-03T03:08:42.163Z,18.9
2018-10-03T03:09:30.474Z,19
2018-10-03T03:10:20.749Z,19
2018-10-03T03:11:09.679Z,18.9
2018-10-03T03:12:00.566Z,18.9
2018-10-03T03:12:49.912Z,18.9
2018-10-03T03:13:39.839Z,18.9
2018-10-03T03:14:30.152Z,18.9
2018-10-03T03:15:20.247Z,18.9
2018-10-03T03:16:10.981Z,19
2018-10-03T03:17:00.424Z,18.9
2018-10-03T03:17:50.755Z,18.9
2018-10-03T03:18:40.442Z,18.9
2018-10-03T03:19:30.798Z,18.9
2018-10-03T03:20:20.350Z,18.9
2018-10-03T03:21:09.886Z,18.9
2018-10-03T03:22:00.762Z,18.9
2018-10-03T03:22:51.398Z,18.9
2018-10-03T03:23:40.930Z,18.9
2018-10-03T03:24:31.275Z,18.9
2018-10-03T03:25:21.348Z,18.9
2018-10-03T03:26:12.275Z,18.9
2018-10-03T03:27:01.158Z,18.9
2018-10-03T03:27:51.205Z,18.9
2018-10-03T03:28:41.080Z,18.9
2018-10-03T03:29:31.857Z,18.9
2018-10-03T03:30:22.255Z,18.9
2018-10-03T03:31:11.463Z,18.9
2018-10-03T03:32:01.878Z,18.9
2018-10-03T03:32:51.337Z,18.9
2018-10-03T03:33:41.918Z,18.9
2018-10-03T03:34:32.500Z,18.9
2018-10-03T03:35:21.313Z,18.9
2018-10-03T03:36:11.829Z,18.9
2018-10-03T03:37:01.022Z,18.9
2018-10-03T03:37:51.662Z,18.9
2018-10-03T03:38:41.455Z,18.9
2018-10-03T03:39:32.939Z,18.9
2018-10-03T03:40:23.240Z,18.9
2018-10-03T03:41:11.895Z,18.9
2018-10-03T03:42:02.478Z,18.9
2018-10-03T03:42:53.082Z,18.9
2018-10-03T03:43:42.387Z,18.9
2018-10-03T03:44:32.456Z,18.9
2018-10-03T03:45:22.874Z,18.9
2018-10-03T03:46:12.770Z,18.9
2018-10-03T03:47:02.626Z,18.9
2018-10-03T03:47:52.394Z,18.9
2018-10-03T03:48:43.047Z,18.9
2018-10-03T03:49:32.023Z,18.9
2018-10-03T03:50:23.095Z,18.9
2018-10-03T03:51:13.289Z,18.9
2018-10-03T03:52:02.977Z,18.9
2018-10-03T03:52:51.667Z,18.9
2018-10-03T03:53:43.771Z,18.9
2018-10-03T03:54:33.403Z,18.9
2018-10-03T03:55:22.974Z,18.9
2018-10-03T03:56:13.039Z,18.9
2018-10-03T03:57:03.078Z,18.9
2018-10-03T03:57:52.936Z,18.9
2018-10-03T03:58:43.243Z,18.9
2018-10-03T03:59:33.354Z,18.9
2018-10-03T04:00:23.893Z,18.9
2018-10-03T04:01:14.220Z,18.9
2018-10-03T04:02:03.487Z,18.9
2018-10-03T04:02:51.801Z,18.9
2018-10-03T04:03:43.385Z,18.9
2018-10-03T04:04:34.256Z,18.9
2018-10-03T04:05:23.697Z,18.9
2018-10-03T04:06:14.601Z,18.8
2018-10-03T04:07:04.431Z,18.9
2018-10-03T04:07:53.903Z,18.9
2018-10-03T04:08:44.538Z,18.9
2018-10-03T04:09:33.733Z,18.9
2018-10-03T04:10:24.701Z,18.9
2018-10-03T04:11:13.896Z,18.9
2018-10-03T04:12:04.495Z,18.9
2018-10-03T04:12:55.077Z,18.9
2018-10-03T04:13:42.713Z,18.8
2018-10-03T04:14:35.038Z,18.9
2018-10-03T04:15:25.052Z,18.9
2018-10-03T04:16:15.352Z,18.8
2018-10-03T04:17:04.389Z,18.8
2018-10-03T04:17:54.147Z,18.8
2018-10-03T04:18:45.032Z,18.8
2018-10-03T04:19:34.711Z,18.8
2018-10-03T04:20:25.153Z,18.8
2018-10-03T04:21:13.820Z,18.8
2018-10-03T04:22:05.297Z,18.8
2018-10-03T04:22:55.352Z,18.8
2018-10-03T04:23:44.540Z,18.8
2018-10-03T04:24:34.367Z,18.9
2018-10-03T04:25:25.038Z,18.8
2018-10-03T04:26:13.974Z,18.8
2018-10-03T04:27:05.744Z,18.8
2018-10-03T04:27:55.211Z,18.8
2018-10-03T04:28:44.932Z,18.8
2018-10-03T04:29:34.770Z,18.8
2018-10-03T04:30:24.722Z,18.8
2018-10-03T04:31:15.462Z,18.8
2018-10-03T04:32:06.101Z,18.8
2018-10-03T04:32:55.258Z,18.8
2018-10-03T04:33:45.081Z,18.8
2018-10-03T04:34:34.951Z,18.8
2018-10-03T04:35:26.315Z,18.8
2018-10-03T04:36:15.281Z,18.8
2018-10-03T04:54:37.956Z,18.8
2018-10-03T04:55:27.969Z,18.8
2018-10-03T04:56:17.268Z,18.8
2018-10-03T04:57:08.614Z,18.8
2018-10-03T04:57:57.661Z,18.8
2018-10-03T04:58:48.787Z,18.8
2018-10-03T04:59:39.211Z,18.8
2018-10-03T05:00:28.199Z,18.8
2018-10-03T05:01:18.169Z,18.8
2018-10-03T05:02:07.379Z,18.8
2018-10-03T05:02:58.855Z,18.8
2018-10-03T05:03:48.651Z,18.8
2018-10-03T05:04:40.585Z,18.8
2018-10-03T05:05:29.489Z,18.8
2018-10-03T05:06:19.303Z,18.8
2018-10-03T05:07:10.128Z,18.8
2018-10-03T05:08:00.256Z,18.8
2018-10-03T05:08:49.506Z,18.8
2018-10-03T05:09:38.860Z,18.8
2018-10-03T05:10:29.323Z,18.8
2018-10-03T05:12:10.795Z,18.8
2018-10-03T05:13:00.113Z,18.8
2018-10-03T05:13:49.876Z,18.8
2018-10-03T05:15:28.975Z,18.8
2018-10-03T05:39:44.117Z,18.6
2018-10-03T05:43:52.841Z,18.6
2018-10-03T05:44:42.261Z,18.6
2018-10-03T05:46:23.363Z,18.6
2018-10-03T05:47:13.416Z,18.6
2018-10-03T05:49:42.345Z,18.6
2018-10-03T05:50:33.390Z,18.6
2018-10-03T05:51:23.430Z,18.6
2018-10-03T05:52:13.452Z,18.6
2018-10-03T05:53:04.141Z,18.6
2018-10-03T05:54:44.716Z,18.6
2018-10-03T05:55:33.811Z,18.6
2018-10-03T05:56:23.500Z,18.6
2018-10-03T05:57:13.348Z,18.6
2018-10-03T05:58:03.950Z,18.6
2018-10-03T05:58:54.012Z,18.6
2018-10-03T05:59:45.079Z,18.6
2018-10-03T06:00:33.783Z,18.6
2018-10-03T06:01:23.852Z,18.6
2018-10-03T06:02:13.666Z,18.6
2018-10-03T06:03:03.756Z,18.6
2018-10-03T06:03:54.143Z,18.6
2018-10-03T06:04:42.835Z,18.6
2018-10-03T06:05:33.695Z,18.6
2018-10-03T06:06:23.713Z,18.6
2018-10-03T06:07:14.048Z,18.6
2018-10-03T06:08:04.175Z,18.6
2018-10-03T06:08:53.785Z,18.6
2018-10-03T06:09:45.038Z,18.6
2018-10-03T06:10:34.672Z,18.6
2018-10-03T06:11:24.112Z,18.6
2018-10-03T06:12:16.120Z,18.6
2018-10-03T06:13:03.982Z,18.6
2018-10-03T06:13:53.449Z,18.6
2018-10-03T06:14:44.374Z,18.6
2018-10-03T06:15:35.215Z,18.6
2018-10-03T06:16:24.774Z,18.6
2018-10-03T06:17:14.289Z,18.6
2018-10-03T06:18:04.917Z,18.6
2018-10-03T06:18:55.718Z,18.6
2018-10-03T06:19:43.393Z,18.6
2018-10-03T06:20:33.638Z,18.6
2018-10-03T06:21:23.749Z,18.6
2018-10-03T06:22:13.187Z,18.6
2018-10-03T06:23:04.307Z,18.6
2018-10-03T06:23:53.736Z,18.6
2018-10-03T06:24:43.191Z,18.6
2018-10-03T06:25:33.719Z,18.6
2018-10-03T06:26:22.818Z,18.6
2018-10-03T06:27:14.024Z,18.6
2018-10-03T06:28:05.883Z,18.6
2018-10-03T06:28:53.934Z,18.6
2018-10-03T06:29:44.157Z,18.6
2018-10-03T06:30:34.438Z,18.6
2018-10-03T06:31:24.964Z,18.6
2018-10-03T06:32:14.449Z,18.6
2018-10-03T06:33:05.143Z,18.6
2018-10-03T06:33:54.783Z,18.6
2018-10-03T06:34:45.850Z,18.6
2018-10-03T06:35:35.661Z,18.6
2018-10-03T06:36:26.175Z,18.6
2018-10-03T06:37:16.610Z,18.6
2018-10-03T06:38:06.116Z,18.6
2018-10-03T06:38:56.695Z,18.6
2018-10-03T06:39:46.406Z,18.6
2018-10-03T06:40:37.845Z,18.6
2018-10-03T06:41:29.097Z,18.6
2018-10-03T06:42:17.448Z,18.6
2018-10-03T06:43:06.837Z,18.6
2018-10-03T06:43:56.934Z,18.6
2018-10-03T06:44:47.329Z,18.6
2018-10-03T06:45:37.614Z,18.6
2018-10-03T06:46:27.649Z,18.6
2018-10-03T06:47:17.851Z,18.6
2018-10-03T06:48:08.092Z,18.6
2018-10-03T06:48:58.446Z,18.6
2018-10-03T06:49:47.963Z,18.6
2018-10-03T06:50:38.259Z,18.6
2018-10-03T06:51:28.388Z,18.6
2018-10-03T06:52:17.738Z,18.6
2018-10-03T06:53:07.283Z,18.6
2018-10-03T06:53:58.803Z,18.6
2018-10-03T06:54:48.070Z,18.6
2018-10-03T06:55:37.934Z,18.6
2018-10-03T06:56:29.495Z,18.6
2018-10-03T06:57:17.579Z,18.6
2018-10-03T06:58:08.800Z,18.6
2018-10-03T06:58:58.602Z,18.6
2018-10-03T06:59:48.383Z,18.6
2018-10-03T07:00:39.325Z,18.6
2018-10-03T07:01:28.857Z,18.6
2018-10-03T07:02:19.900Z,18.6
2018-10-03T07:03:09.442Z,18.6
2018-10-03T07:03:58.120Z,18.6
2018-10-03T07:04:49.029Z,18.6
2018-10-03T07:05:38.844Z,18.6
2018-10-03T07:06:29.170Z,18.6
2018-10-03T07:07:19.530Z,18.6
2018-10-03T07:08:09.017Z,18.6
2018-10-03T07:08:59.877Z,18.6
2018-10-03T07:09:48.566Z,18.6
2018-10-03T07:10:39.535Z,18.6
2018-10-03T07:11:29.500Z,18.6
2018-10-03T07:12:19.078Z,18.6
2018-10-03T07:13:11.489Z,18.6
2018-10-03T07:14:00.062Z,18.6
2018-10-03T07:14:49.784Z,18.6
2018-10-03T07:15:39.876Z,18.6
2018-10-03T07:16:29.614Z,18.6
2018-10-03T07:17:20.205Z,18.6
2018-10-03T07:18:10.009Z,18.6
2018-10-03T07:19:00.739Z,18.6
2018-10-03T07:19:49.872Z,18.6
2018-10-03T07:20:40.102Z,18.6
2018-10-03T07:21:30.406Z,18.6
2018-10-03T07:22:20.826Z,18.6
2018-10-03T07:23:10.207Z,18.6
2018-10-03T07:24:00.786Z,18.6
2018-10-03T07:24:51.311Z,18.6
2018-10-03T07:25:40.601Z,18.6
2018-10-03T07:26:30.551Z,18.6
2018-10-03T07:27:19.902Z,18.6
2018-10-03T07:28:10.754Z,18.6
2018-10-03T07:29:00.930Z,18.6
2018-10-03T07:29:50.610Z,18.6
2018-10-03T07:30:41.001Z,18.6
2018-10-03T07:31:30.291Z,18.6
2018-10-03T07:32:20.777Z,18.6
2018-10-03T07:33:10.913Z,18.6
2018-10-03T07:34:00.888Z,18.6
2018-10-03T07:34:51.276Z,18.6
2018-10-03T07:35:40.478Z,18.6
2018-10-03T07:36:31.913Z,18.6
2018-10-03T07:37:20.633Z,18.6
2018-10-03T07:38:12.275Z,18.6
2018-10-03T07:39:01.628Z,18.6
2018-10-03T07:39:51.140Z,18.6
2018-10-03T07:40:40.938Z,18.6
2018-10-03T07:41:31.590Z,18.6
2018-10-03T07:42:22.108Z,18.5
2018-10-03T07:43:11.851Z,18.6
2018-10-03T07:44:03.695Z,18.6
2018-10-03T07:44:52.019Z,18.5
2018-10-03T07:45:41.516Z,18.6
2018-10-03T07:46:31.293Z,18.5
2018-10-03T07:47:21.903Z,18.6
2018-10-03T07:48:13.508Z,18.6
2018-10-03T07:49:02.336Z,18.5
2018-10-03T07:49:52.071Z,18.5
2018-10-03T07:50:42.486Z,18.6
2018-10-03T07:51:31.966Z,18.6
2018-10-03T07:52:22.871Z,18.6
2018-10-03T07:53:11.754Z,18.6
2018-10-03T07:54:03.017Z,18.6
2018-10-03T07:54:53.001Z,18.5
2018-10-03T07:55:42.581Z,18.6
2018-10-03T07:56:34.024Z,18.6
2018-10-03T07:57:22.321Z,18.5
2018-10-03T07:58:12.836Z,18.5
2018-10-03T07:59:04.883Z,18.6
2018-10-03T07:59:53.204Z,18.6
2018-10-03T08:00:42.963Z,18.6
2018-10-03T08:01:33.301Z,18.6
2018-10-03T08:02:23.329Z,18.6
2018-10-03T08:03:13.359Z,18.6
2018-10-03T08:04:03.408Z,18.6
2018-10-03T08:04:53.769Z,18.6
2018-10-03T08:05:43.589Z,18.6
2018-10-03T08:06:33.287Z,18.6
2018-10-03T08:07:24.302Z,18.6
2018-10-03T08:08:14.294Z,18.6
2018-10-03T08:09:03.534Z,18.6
2018-10-03T08:09:53.401Z,18.6
2018-10-03T08:10:44.580Z,18.6
2018-10-03T08:11:34.287Z,18.6
2018-10-03T08:12:24.259Z,18.6
2018-10-03T08:13:13.692Z,18.6
2018-10-03T08:14:04.593Z,18.6
2018-10-03T08:14:54.268Z,18.6
2018-10-03T08:15:45.091Z,18.6
2018-10-03T08:16:34.692Z,18.6
2018-10-03T08:17:25.483Z,18.6
2018-10-03T08:18:14.795Z,18.6
2018-10-03T08:19:05.185Z,18.6
2018-10-03T08:19:54.875Z,18.6
2018-10-03T08:20:44.409Z,18.6
2018-10-03T08:21:34.742Z,18.6
2018-10-03T08:22:25.322Z,18.6
2018-10-03T08:23:15.684Z,18.6
2018-10-03T08:24:05.492Z,18.6
2018-10-03T08:24:55.082Z,18.6
2018-10-03T08:25:45.349Z,18.6
2018-10-03T08:26:35.112Z,18.6
2018-10-03T08:27:24.914Z,18.6
2018-10-03T08:28:16.090Z,18.6
2018-10-03T08:29:05.652Z,18.6
2018-10-03T08:29:55.612Z,18.6
2018-10-03T08:31:35.512Z,18.6
2018-10-03T08:32:27.683Z,18.6
2018-10-03T08:33:15.966Z,18.6
2018-10-03T08:34:56.059Z,18.6
2018-10-03T08:35:46.404Z,18.6
2018-10-03T08:36:35.647Z,18.6
2018-10-03T08:38:15.997Z,18.6
2018-10-03T08:39:06.586Z,18.6
2018-10-03T08:39:56.420Z,18.6
2018-10-03T08:44:56.764Z,18.6
2018-10-03T09:15:33.492Z,18.8
2018-10-03T09:16:23.529Z,18.8
2018-10-03T09:17:12.802Z,18.8
2018-10-03T09:18:02.302Z,18.8
2018-10-03T09:18:53.041Z,18.8
2018-10-03T09:21:23.656Z,18.8
2018-10-03T09:22:13.419Z,18.8
2018-10-03T09:23:02.871Z,18.8
2018-10-03T09:23:53.597Z,18.8
2018-10-03T09:24:42.203Z,18.8
2018-10-03T09:25:33.324Z,18.8
2018-10-03T09:26:22.931Z,18.8
2018-10-03T09:27:13.873Z,18.8
2018-10-03T09:28:02.810Z,18.8
2018-10-03T09:28:53.377Z,18.8
2018-10-03T09:30:33.478Z,18.8
2018-10-03T09:31:23.293Z,18.8
2018-10-03T09:32:13.341Z,18.8
2018-10-03T09:33:04.225Z,18.8
2018-10-03T09:33:53.440Z,18.8
2018-10-03T09:34:44.053Z,18.8
2018-10-03T09:35:34.140Z,18.8
2018-10-03T09:36:23.078Z,18.8
2018-10-03T09:37:13.423Z,18.8
2018-10-03T09:38:04.625Z,18.8
2018-10-03T09:38:54.725Z,18.8
2018-10-03T09:39:45.326Z,18.8
2018-10-03T09:40:34.910Z,18.8
2018-10-03T09:41:24.297Z,18.8
2018-10-03T09:42:14.963Z,18.8
2018-10-03T09:43:04.184Z,18.8
2018-10-03T09:43:55.882Z,18.8
2018-10-03T09:44:46.210Z,18.8
2018-10-03T09:45:35.439Z,18.8
2018-10-03T09:46:24.977Z,18.8
2018-10-03T09:47:15.050Z,18.8
2018-10-03T09:48:05.109Z,18.8
2018-10-03T09:48:54.872Z,18.8
2018-10-03T09:49:44.944Z,18.8
2018-10-03T09:50:34.709Z,18.8
2018-10-03T09:51:25.172Z,18.8
2018-10-03T09:52:14.232Z,18.8
2018-10-03T09:53:05.515Z,18.8
2018-10-03T09:53:56.046Z,18.8
2018-10-03T09:54:45.546Z,18.8
2018-10-03T09:55:35.888Z,18.8
2018-10-03T09:56:26.072Z,18.8
2018-10-03T09:57:16.032Z,18.8
2018-10-03T09:58:05.841Z,18.8
2018-10-03T09:58:55.441Z,18.8
2018-10-03T09:59:45.469Z,18.8
2018-10-03T10:00:37.719Z,18.8
2018-10-03T10:01:25.666Z,18.8
2018-10-03T10:02:16.354Z,18.8
2018-10-03T10:03:05.908Z,18.8
2018-10-03T10:03:56.289Z,18.8
2018-10-03T10:04:46.336Z,18.8
2018-10-03T10:05:36.580Z,18.8
2018-10-03T10:06:26.687Z,18.8
2018-10-03T10:07:17.161Z,18.8
2018-10-03T10:08:06.733Z,18.8
2018-10-03T10:08:56.684Z,18.8
2018-10-03T10:09:47.556Z,18.8
2018-10-03T10:10:36.416Z,18.8
2018-10-03T10:11:31.485Z,18.8
2018-10-03T10:12:17.635Z,18.8
2018-10-03T10:13:07.727Z,18.8
2018-10-03T10:13:57.535Z,18.8
2018-10-03T10:14:47.874Z,18.8
2018-10-03T10:15:37.160Z,18.8
2018-10-03T10:16:27.698Z,18.8
2018-10-03T10:17:17.738Z,18.8
2018-10-03T10:18:07.856Z,18.8
2018-10-03T10:18:56.853Z,18.8
2018-10-03T10:19:47.252Z,18.8
2018-10-03T10:20:38.108Z,18.8
2018-10-03T10:21:28.065Z,18.8
2018-10-03T10:22:17.867Z,18.8
2018-10-03T10:23:08.192Z,18.8
2018-10-03T10:23:58.206Z,18.8
2018-10-03T10:24:46.985Z,18.8
2018-10-03T10:25:38.694Z,18.8
2018-10-03T10:26:27.290Z,18.8
2018-10-03T10:27:18.205Z,18.9
2018-10-03T10:28:08.819Z,18.8
2018-10-03T10:28:57.847Z,18.8
2018-10-03T10:29:48.929Z,18.8
2018-10-03T10:30:38.703Z,18.8
2018-10-03T10:31:28.542Z,18.8
2018-10-03T10:32:21.465Z,18.8
2018-10-03T10:33:11.894Z,18.8
2018-10-03T10:33:59.332Z,18.8
2018-10-03T10:34:49.589Z,18.8
2018-10-03T10:35:38.526Z,18.8
2018-10-03T10:36:29.559Z,18.9
2018-10-03T10:37:19.449Z,18.9
2018-10-03T10:38:09.054Z,18.8
2018-10-03T10:38:59.349Z,18.8
2018-10-03T10:39:49.139Z,18.8
2018-10-03T10:40:45.951Z,18.9
2018-10-03T10:41:35.285Z,18.9
2018-10-03T10:42:18.844Z,18.9
2018-10-03T10:43:09.180Z,18.9
2018-10-03T10:43:59.454Z,18.9
2018-10-03T10:44:49.801Z,18.8
2018-10-03T10:45:40.161Z,18.9
2018-10-03T10:46:30.110Z,18.8
2018-10-03T10:47:19.434Z,18.9
2018-10-03T10:48:09.548Z,18.9
2018-10-03T10:48:59.858Z,18.9
2018-10-03T10:49:49.690Z,18.9
2018-10-03T10:50:40.002Z,18.9
2018-10-03T10:51:29.038Z,18.9
2018-10-03T10:52:19.608Z,18.9
2018-10-03T10:53:10.218Z,18.9
2018-10-03T10:53:59.729Z,18.9
2018-10-03T10:54:49.434Z,18.9
2018-10-03T10:55:40.118Z,18.9
2018-10-03T10:56:29.842Z,18.9
2018-10-03T10:57:19.915Z,18.9
2018-10-03T10:58:10.304Z,18.9
2018-10-03T10:59:00.297Z,18.9
2018-10-03T10:59:50.867Z,18.9
2018-10-03T11:00:39.927Z,18.9
2018-10-03T11:01:30.560Z,18.9
2018-10-03T11:02:19.517Z,18.9
2018-10-03T11:03:10.712Z,18.9
2018-10-03T11:04:00.461Z,18.9
2018-10-03T11:04:50.815Z,18.9
2018-10-03T11:05:40.637Z,18.9
2018-10-03T11:06:32.045Z,18.9
2018-10-03T11:07:20.994Z,18.9
2018-10-03T11:08:10.765Z,18.9
2018-10-03T11:09:01.397Z,18.9
2018-10-03T11:09:51.187Z,18.9
2018-10-03T11:10:41.242Z,18.9
2018-10-03T11:11:31.590Z,18.9
2018-10-03T11:12:21.371Z,18.9
2018-10-03T11:13:11.231Z,18.9
2018-10-03T11:14:01.506Z,18.9
2018-10-03T11:14:51.544Z,18.9
2018-10-03T11:15:43.679Z,18.9
2018-10-03T11:16:31.672Z,18.9
2018-10-03T11:17:21.238Z,18.9
2018-10-03T11:18:11.031Z,18.9
2018-10-03T11:19:01.882Z,18.9
2018-10-03T11:19:51.417Z,18.9
2018-10-03T11:20:42.224Z,18.9
2018-10-03T11:21:30.891Z,18.9
2018-10-03T11:22:22.344Z,18.9
2018-10-03T11:23:12.192Z,18.9
2018-10-03T11:24:07.068Z,18.9
2018-10-03T11:24:56.961Z,18.9
2018-10-03T11:25:42.649Z,18.9
2018-10-03T11:26:33.247Z,18.9
2018-10-03T11:27:37.957Z,18.9
2018-10-03T11:28:12.892Z,18.9
2018-10-03T11:29:02.019Z,18.9
2018-10-03T11:29:53.251Z,18.9
2018-10-03T11:30:42.451Z,18.9
2018-10-03T11:31:33.277Z,19
2018-10-03T11:32:23.559Z,18.9
2018-10-03T11:33:13.763Z,19
2018-10-03T11:34:03.011Z,19
2018-10-03T11:34:52.365Z,19
2018-10-03T11:35:43.121Z,18.9
2018-10-03T11:36:33.423Z,18.9
2018-10-03T11:37:22.920Z,19
2018-10-03T11:38:13.925Z,18.9
2018-10-03T11:39:03.369Z,19
2018-10-03T11:39:52.556Z,19
2018-10-03T11:40:43.683Z,19
2018-10-03T11:41:33.452Z,19
2018-10-03T11:42:24.588Z,19
2018-10-03T11:43:13.978Z,19
2018-10-03T11:44:05.909Z,19
2018-10-03T11:44:54.859Z,19
2018-10-03T11:45:44.100Z,19
2018-10-03T11:46:32.842Z,19
2018-10-03T11:47:23.394Z,19
2018-10-03T11:48:14.853Z,19
2018-10-03T11:49:03.733Z,19
2018-10-03T11:49:54.656Z,19
2018-10-03T11:50:45.965Z,19
2018-10-03T11:51:34.041Z,19
2018-10-03T11:52:23.764Z,19
2018-10-03T11:53:14.340Z,19
2018-10-03T11:54:04.407Z,19
2018-10-03T11:54:54.804Z,19
2018-10-03T11:55:45.369Z,19
2018-10-03T11:56:34.659Z,19
2018-10-03T11:57:24.312Z,19
2018-10-03T11:58:14.503Z,19
2018-10-03T11:59:04.522Z,19
2018-10-03T11:59:54.962Z,19
2018-10-03T12:00:44.994Z,19.1
2018-10-03T12:01:34.429Z,19.1
2018-10-03T12:02:25.644Z,19
2018-10-03T12:03:17.915Z,19
2018-10-03T12:04:05.781Z,19
2018-10-03T12:04:54.996Z,19.1
2018-10-03T12:05:44.786Z,19.1
2018-10-03T12:06:36.569Z,19.1
2018-10-03T12:07:26.304Z,19.1
2018-10-03T12:08:15.571Z,19.1
2018-10-03T12:09:04.594Z,19.1
2018-10-03T12:09:55.859Z,19.1
2018-10-03T12:10:45.432Z,19.1
2018-10-03T12:11:35.174Z,19.1
2018-10-03T12:12:26.608Z,19.1
2018-10-03T12:13:15.620Z,19.1
2018-10-03T12:14:06.253Z,19.1
2018-10-03T12:14:56.791Z,19.1
2018-10-03T12:15:46.641Z,19.1
2018-10-03T12:16:36.361Z,19.1
2018-10-03T12:17:26.978Z,19.1
2018-10-03T12:18:15.785Z,19.1
2018-10-03T12:19:06.303Z,19.1
2018-10-03T12:19:57.440Z,19.1
2018-10-03T12:20:45.861Z,19.1
2018-10-03T12:21:36.998Z,19.1
2018-10-03T12:22:26.039Z,19.1
2018-10-03T12:23:15.817Z,19.1
2018-10-03T12:24:06.862Z,19.1
2018-10-03T12:24:56.455Z,19.1
2018-10-03T12:25:47.043Z,19.1
2018-10-03T12:26:36.987Z,19.1
2018-10-03T12:27:26.692Z,19.1
2018-10-03T12:28:16.110Z,19.1
2018-10-03T12:29:07.633Z,19.1
2018-10-03T12:29:57.942Z,19.1
2018-10-03T12:30:46.262Z,19.1
2018-10-03T12:31:37.832Z,19.1
2018-10-03T12:32:26.979Z,19.1
2018-10-03T12:33:18.448Z,19.2
2018-10-03T12:34:06.298Z,19.1
2018-10-03T12:34:58.184Z,19.1
2018-10-03T12:35:48.361Z,19.1
2018-10-03T12:36:37.652Z,19.2
2018-10-03T12:37:27.984Z,19.2
2018-10-03T12:38:18.005Z,19.2
2018-10-03T12:39:07.516Z,19.2
2018-10-03T12:39:57.910Z,19.2
2018-10-03T12:40:47.129Z,19.2
2018-10-03T12:41:38.071Z,19.2
2018-10-03T12:42:27.784Z,19.2
2018-10-03T12:43:18.348Z,19.2
2018-10-03T12:44:08.491Z,19.2
2018-10-03T12:44:59.270Z,19.2
2018-10-03T12:45:49.367Z,19.2
2018-10-03T12:46:38.623Z,19.2
2018-10-03T12:47:28.646Z,19.2
2018-10-03T12:48:18.371Z,19.2
2018-10-03T12:49:08.220Z,19.2
2018-10-03T12:49:58.356Z,19.2
2018-10-03T12:50:47.786Z,19.2
2018-10-03T12:51:38.541Z,19.3
2018-10-03T12:52:28.465Z,19.2
2018-10-03T12:53:19.158Z,19.2
2018-10-03T12:54:08.606Z,19.2
2018-10-03T12:54:59.409Z,19.2
2018-10-03T12:55:48.726Z,19.2
2018-10-03T12:56:39.125Z,19.2
2018-10-03T12:57:28.277Z,19.2
2018-10-03T12:58:19.845Z,19.3
2018-10-03T12:59:08.969Z,19.2
2018-10-03T12:59:59.591Z,19.3
2018-10-03T13:00:49.538Z,19.2
2018-10-03T13:01:38.443Z,19.2
2018-10-03T13:02:29.500Z,19.3
2018-10-03T13:03:19.021Z,19.3
2018-10-03T13:04:09.698Z,19.3
2018-10-03T13:04:59.155Z,19.3
2018-10-03T13:05:49.248Z,19.3
2018-10-03T13:06:39.867Z,19.3
2018-10-03T13:07:29.297Z,19.3
2018-10-03T13:08:20.021Z,19.3
2018-10-03T13:09:09.999Z,19.3
2018-10-03T13:10:00.362Z,19.3
2018-10-03T13:10:49.955Z,19.3
2018-10-03T13:11:39.487Z,19.3
2018-10-03T13:12:29.675Z,19.3
2018-10-03T13:13:20.482Z,19.3
2018-10-03T13:14:10.690Z,19.3
2018-10-03T13:15:00.754Z,19.3
2018-10-03T13:15:50.376Z,19.3
2018-10-03T13:16:40.288Z,19.3
2018-10-03T13:17:30.034Z,19.3
2018-10-03T13:18:21.007Z,19.3
2018-10-03T13:19:10.581Z,19.3
2018-10-03T13:20:00.492Z,19.3
2018-10-03T13:20:52.022Z,19.3
2018-10-03T13:21:40.634Z,19.3
2018-10-03T13:22:31.002Z,19.3
2018-10-03T13:23:21.628Z,19.3
2018-10-03T13:24:11.161Z,19.3
2018-10-03T13:25:01.812Z,19.3
2018-10-03T13:25:51.875Z,19.3
2018-10-03T13:26:41.599Z,19.3
2018-10-03T13:27:31.051Z,19.3
2018-10-03T13:28:21.449Z,19.3
2018-10-03T13:29:11.801Z,19.3
2018-10-03T13:30:01.873Z,19.3
2018-10-03T13:30:52.127Z,19.3
2018-10-03T13:31:41.711Z,19.3
2018-10-03T13:32:32.356Z,19.3
2018-10-03T13:33:22.407Z,19.3
2018-10-03T13:34:11.923Z,19.3
2018-10-03T13:35:01.959Z,19.3
2018-10-03T13:35:52.549Z,19.3
2018-10-03T13:36:42.083Z,19.3
2018-10-03T13:37:31.841Z,19.3
2018-10-03T13:38:21.614Z,19.3
2018-10-03T13:39:13.096Z,19.3
2018-10-03T13:40:02.319Z,19.3
2018-10-03T13:40:52.897Z,19.3
2018-10-03T13:41:43.415Z,19.3
2018-10-03T13:42:32.809Z,19.3
2018-10-03T13:43:22.863Z,19.3